PAII Airport (Egegik) Information

FAA: EII - ICAO: PAII

PAII Airport Location

State Alaska
County Bristol Bay
City Egegik
PAII Airport is 2 miles south of Egegik, AK.
Latitude 58-11-07.7650N
Longitude 157-22-31.5400W
Elevation 92ft

PAII Airport METARs

METAR PAII 161856Z AUTO 00000KT 10SM FEW100 07/06 A2930 RMK AO2 SLP920 T00720056
Altimeter 29.30"
Temperature 7.2°C (45.0°F)
Wind 0° at 0KT
Clouds few at 10,000ft
Visibility 10.0mi
Time observed: 2021-09-16T18:56:00Z

PAII Airport Details

Status Operational
Activation September 1994
Ownership Public
Usage Public
Chart KODIAK
ATC on-site No
Beacon schedule N/A
Beacon color clear green

PAII Airport Contacts

Owner CITY OF EGEGIK
Owner address PO BOX 189, EGEGIK, AK 99579
Owner phone 907-233-2400
Manager ALVIN WERNEKE
Manager address BOX 55, KOTZEBUE, AK 99752
Manager phone 907-442-3147

PAII Airport (Egegik) Radio Frequencies

PAII (Airport) Radio Frequencies

UNICOM N/A
Common traffic advisory frequency (CTAF) 122.8